Time;durP1;ratioP1;P1;durP2;ratioP2;P2;SDS_P1;SDS_P2;PMS_P1;PMS_P2;Temp;Humidity;BMP_temperature;BMP_pressure;BME280_temperature;BME280_humidity;BME280_pressure;Samples;Min_cycle;Max_cycle;Signal;HPM_P1;HPM_P2
2022/04/27 00:00:31;;;;;;;5.50;4.03;;;;;;;;;;4834110;29;20033;-84
2022/04/27 00:02:56;;;;;;;6.55;4.10;;;;;;;;;;4825102;29;20026;-84
2022/04/27 00:05:23;;;;;;;7.53;4.45;;;;;;;;;;4818922;29;20548;-84
2022/04/27 00:07:48;;;;;;;6.90;3.90;;;;;;;;;;4812842;29;20064;-82
2022/04/27 00:10:14;;;;;;;5.90;4.30;;;;;;;;;;4820099;29;20551;-90
2022/04/27 00:12:40;;;;;;;6.70;4.10;;;;;;;;;;4815908;29;20046;-84
2022/04/27 00:15:06;;;;;;;6.93;4.45;;;;;;;;;;4814834;29;20495;-84
2022/04/27 00:17:32;;;;;;;6.68;4.45;;;;;;;;;;4826704;29;20034;-89
2022/04/27 00:19:57;;;;;;;8.73;4.57;;;;;;;;;;4815768;29;20040;-82
2022/04/27 00:22:23;;;;;;;5.82;4.15;;;;;;;;;;4829524;29;20408;-84
2022/04/27 00:24:49;;;;;;;5.68;4.18;;;;;;;;;;4819353;29;20026;-84
2022/04/27 00:27:15;;;;;;;7.00;4.50;;;;;;;;;;4817748;29;20033;-84
2022/04/27 00:29:40;;;;;;;7.03;4.57;;;;;;;;;;4818891;29;20041;-85
2022/04/27 00:32:06;;;;;;;7.63;4.50;;;;;;;;;;4814541;29;20041;-84
2022/04/27 00:34:31;;;;;;;6.32;4.45;;;;;;;;;;4829303;29;20061;-83
2022/04/27 00:36:56;;;;;;;7.03;4.78;;;;;;;;;;4816161;29;20129;-83
2022/04/27 00:39:21;;;;;;;6.10;4.15;;;;;;;;;;4814588;29;20137;-85
2022/04/27 00:42:21;;;;;;;6.80;4.82;;;;;;;;;;4832941;29;20031;-82
2022/04/27 00:44:38;;;;;;;7.43;4.70;;;;;;;;;;4826667;29;20050;-85
2022/04/27 00:47:04;;;;;;;7.10;4.50;;;;;;;;;;4812869;29;20026;-82
2022/04/27 00:49:29;;;;;;;8.40;5.10;;;;;;;;;;4819180;29;20030;-82
2022/04/27 00:51:55;;;;;;;7.13;4.88;;;;;;;;;;4824078;29;20113;-88
2022/04/27 00:54:22;;;;;;;6.93;4.90;;;;;;;;;;4821514;29;20034;-82
2022/04/27 00:56:51;;;;;;;6.68;4.78;;;;;;;;;;4833169;29;20061;-82
2022/04/27 00:59:17;;;;;;;8.10;5.00;;;;;;;;;;4826641;29;20038;-82
2022/04/27 01:01:43;;;;;;;7.40;4.80;;;;;;;;;;4830785;29;20686;-84
2022/04/27 01:04:08;;;;;;;8.30;5.18;;;;;;;;;;4825687;29;20038;-88
2022/04/27 01:06:38;;;;;;;8.40;5.32;;;;;;;;;;4816129;29;20057;-91
2022/04/27 01:09:04;;;;;;;8.73;4.85;;;;;;;;;;4826678;29;20069;-88
2022/04/27 01:11:32;;;;;;;6.85;4.57;;;;;;;;;;4815233;29;21472;-84
2022/04/27 01:13:57;;;;;;;8.90;5.03;;;;;;;;;;4829232;29;20392;-83
2022/04/27 01:16:23;;;;;;;7.10;4.88;;;;;;;;;;4818307;29;20032;-89
2022/04/27 01:18:50;;;;;;;6.60;4.78;;;;;;;;;;4826450;29;20029;-84
2022/04/27 01:21:16;;;;;;;7.95;5.20;;;;;;;;;;4826932;29;20329;-90
2022/04/27 01:23:41;;;;;;;8.05;5.00;;;;;;;;;;4815016;29;20030;-82
2022/04/27 01:26:07;;;;;;;6.88;5.00;;;;;;;;;;4813500;29;20030;-87
2022/04/27 01:28:35;;;;;;;6.97;4.95;;;;;;;;;;4831888;29;20030;-83
2022/04/27 01:31:06;;;;;;;7.82;5.40;;;;;;;;;;4813627;29;20042;-89
2022/04/27 01:33:35;;;;;;;7.20;4.80;;;;;;;;;;4811056;29;20111;-83
2022/04/27 01:36:05;;;;;;;7.28;4.90;;;;;;;;;;4818622;29;20228;-85
2022/04/27 01:38:39;;;;;;;7.55;4.57;;;;;;;;;;4825436;29;20061;-84
2022/04/27 01:41:08;;;;;;;7.30;4.88;;;;;;;;;;4827427;29;20045;-84
2022/04/27 01:43:34;;;;;;;7.07;4.75;;;;;;;;;;4813676;29;20030;-85
2022/04/27 01:46:00;;;;;;;8.48;4.85;;;;;;;;;;4818865;29;20117;-89
2022/04/27 01:48:28;;;;;;;6.57;4.75;;;;;;;;;;4825149;29;20525;-82
2022/04/27 01:50:54;;;;;;;9.85;4.75;;;;;;;;;;4828803;29;20125;-88
2022/04/27 01:56:04;;;;;;;7.63;5.30;;;;;;;;;;4826048;29;20091;-83
2022/04/27 01:58:30;;;;;;;9.05;4.93;;;;;;;;;;4811300;29;20030;-89
2022/04/27 02:00:56;;;;;;;6.20;4.63;;;;;;;;;;4825088;29;20026;-89
2022/04/27 02:03:22;;;;;;;7.70;5.07;;;;;;;;;;4826077;29;20044;-84
2022/04/27 02:05:48;;;;;;;7.90;5.38;;;;;;;;;;4818222;29;20030;-82
2022/04/27 02:08:14;;;;;;;6.57;4.63;;;;;;;;;;4820649;29;20134;-88
2022/04/27 02:10:40;;;;;;;7.45;5.30;;;;;;;;;;4817160;29;20493;-82
2022/04/27 02:13:07;;;;;;;6.32;4.68;;;;;;;;;;4829971;29;20033;-82
2022/04/27 02:15:33;;;;;;;6.80;5.13;;;;;;;;;;4814462;29;20041;-85
2022/04/27 02:17:59;;;;;;;7.55;5.05;;;;;;;;;;4825970;29;20037;-83
2022/04/27 02:20:25;;;;;;;9.13;5.60;;;;;;;;;;4828977;29;20043;-82
2022/04/27 02:22:51;;;;;;;7.90;5.18;;;;;;;;;;4819038;29;20026;-89
2022/04/27 02:25:17;;;;;;;9.05;5.07;;;;;;;;;;4828620;29;20037;-82
2022/04/27 02:27:43;;;;;;;7.55;4.93;;;;;;;;;;4829909;29;20113;-90
2022/04/27 02:30:09;;;;;;;7.90;5.32;;;;;;;;;;4814137;29;20121;-89
2022/04/27 02:32:35;;;;;;;7.45;5.05;;;;;;;;;;4829184;29;20037;-85
2022/04/27 02:35:00;;;;;;;7.90;5.25;;;;;;;;;;4810790;29;20030;-84
2022/04/27 02:37:26;;;;;;;7.72;5.03;;;;;;;;;;4813519;29;20090;-88
2022/04/27 02:39:51;;;;;;;8.43;5.28;;;;;;;;;;4815623;29;20070;-82
2022/04/27 02:42:17;;;;;;;7.78;5.07;;;;;;;;;;4821877;29;20022;-83
2022/04/27 02:44:43;;;;;;;8.32;5.50;;;;;;;;;;4829070;29;20544;-82
2022/04/27 02:47:09;;;;;;;7.25;4.95;;;;;;;;;;4815741;29;20061;-83
2022/04/27 02:52:18;;;;;;;7.57;5.30;;;;;;;;;;4821833;29;20041;-89
2022/04/27 02:54:43;;;;;;;7.68;5.10;;;;;;;;;;4812455;29;20030;-89
2022/04/27 02:57:09;;;;;;;7.30;4.82;;;;;;;;;;4826241;29;20029;-84
2022/04/27 03:00:36;;;;;;;8.93;5.38;;;;;;;;;;4817247;29;20408;-84
2022/04/27 03:03:02;;;;;;;7.97;5.30;;;;;;;;;;4804364;29;20125;-84
2022/04/27 03:05:27;;;;;;;7.28;4.82;;;;;;;;;;4829519;29;20116;-84
2022/04/27 03:07:52;;;;;;;8.45;5.68;;;;;;;;;;4812420;29;20395;-90
2022/04/27 03:10:18;;;;;;;8.10;5.70;;;;;;;;;;4815571;29;20034;-84
2022/04/27 03:12:43;;;;;;;9.07;5.05;;;;;;;;;;4828529;29;20097;-89
2022/04/27 03:15:09;;;;;;;7.50;5.28;;;;;;;;;;4825418;29;20027;-88
2022/04/27 03:17:34;;;;;;;7.82;4.97;;;;;;;;;;4824792;29;20037;-84
2022/04/27 03:19:59;;;;;;;7.53;5.03;;;;;;;;;;4834434;29;20041;-85
2022/04/27 03:22:25;;;;;;;7.35;5.00;;;;;;;;;;4826834;29;20037;-84
2022/04/27 03:24:50;;;;;;;7.32;4.50;;;;;;;;;;4833173;29;20500;-84
2022/04/27 03:27:15;;;;;;;7.40;4.95;;;;;;;;;;4817318;29;20412;-85
2022/04/27 03:29:41;;;;;;;7.00;4.53;;;;;;;;;;4815296;29;20062;-84
2022/04/27 03:32:07;;;;;;;7.53;4.70;;;;;;;;;;4828708;29;20038;-84
2022/04/27 03:34:32;;;;;;;7.18;4.95;;;;;;;;;;4820825;29;20029;-83
2022/04/27 03:36:57;;;;;;;7.43;4.72;;;;;;;;;;4823604;29;20438;-90
2022/04/27 03:39:23;;;;;;;7.85;5.18;;;;;;;;;;4822619;29;20093;-84
2022/04/27 03:41:48;;;;;;;6.95;4.80;;;;;;;;;;4814408;29;20034;-85
2022/04/27 03:44:13;;;;;;;6.70;4.75;;;;;;;;;;4817369;29;20026;-84
2022/04/27 03:46:39;;;;;;;7.90;5.25;;;;;;;;;;4820468;29;20033;-88
2022/04/27 03:49:04;;;;;;;6.75;4.55;;;;;;;;;;4812640;29;20106;-89
2022/04/27 03:51:29;;;;;;;6.60;4.57;;;;;;;;;;4816430;29;20034;-84
2022/04/27 03:53:55;;;;;;;7.47;5.20;;;;;;;;;;4815284;29;20433;-84
2022/04/27 03:56:20;;;;;;;7.00;4.85;;;;;;;;;;4830338;29;20034;-84
2022/04/27 03:58:45;;;;;;;7.32;4.95;;;;;;;;;;4832753;29;20034;-82
2022/04/27 04:01:11;;;;;;;8.07;5.00;;;;;;;;;;4830951;29;20044;-84
2022/04/27 04:03:36;;;;;;;7.70;4.80;;;;;;;;;;4813688;29;20734;-83
2022/04/27 04:06:01;;;;;;;6.88;4.70;;;;;;;;;;4817126;29;20033;-84
2022/04/27 04:08:27;;;;;;;7.07;4.50;;;;;;;;;;4832575;29;20462;-81
2022/04/27 04:10:52;;;;;;;7.28;4.85;;;;;;;;;;4829704;29;20045;-83
2022/04/27 04:13:18;;;;;;;8.57;4.78;;;;;;;;;;4832434;29;20034;-85
2022/04/27 04:15:43;;;;;;;6.88;4.80;;;;;;;;;;4831083;29;20031;-84
2022/04/27 04:18:08;;;;;;;8.00;4.85;;;;;;;;;;4832848;29;20033;-83
2022/04/27 04:20:34;;;;;;;8.18;4.68;;;;;;;;;;4831697;29;20082;-82
2022/04/27 04:22:59;;;;;;;8.90;4.97;;;;;;;;;;4826148;29;20037;-82
2022/04/27 04:30:52;;;;;;;7.50;4.72;;;;;;;;;;4827901;29;20518;-83
2022/04/27 04:33:18;;;;;;;7.20;4.68;;;;;;;;;;4812516;29;20097;-81
2022/04/27 04:35:43;;;;;;;7.57;4.63;;;;;;;;;;4815649;29;20132;-83
2022/04/27 04:38:09;;;;;;;9.10;4.93;;;;;;;;;;4817603;29;20408;-83
2022/04/27 04:40:34;;;;;;;7.43;4.75;;;;;;;;;;4830641;29;20465;-81
2022/04/27 04:42:59;;;;;;;7.40;4.97;;;;;;;;;;4829166;29;20034;-82
2022/04/27 04:45:25;;;;;;;6.68;4.45;;;;;;;;;;4812176;29;20063;-84
2022/04/27 04:47:51;;;;;;;7.93;5.20;;;;;;;;;;4817931;29;20022;-90
2022/04/27 04:50:17;;;;;;;8.00;4.72;;;;;;;;;;4833906;29;20044;-81
2022/04/27 04:52:42;;;;;;;6.78;4.90;;;;;;;;;;4826040;29;20110;-89
2022/04/27 04:55:08;;;;;;;7.70;5.10;;;;;;;;;;4815790;29;20400;-89
2022/04/27 04:57:33;;;;;;;7.68;4.75;;;;;;;;;;4819376;29;20033;-82
2022/04/27 04:59:59;;;;;;;8.20;4.70;;;;;;;;;;4814126;29;20037;-83
2022/04/27 05:02:24;;;;;;;7.57;5.30;;;;;;;;;;4825258;29;20093;-81
2022/04/27 05:04:52;;;;;;;6.88;4.95;;;;;;;;;;4830328;29;20110;-84
2022/04/27 05:07:18;;;;;;;7.28;5.10;;;;;;;;;;4817029;29;20046;-85
2022/04/27 05:09:44;;;;;;;6.40;4.32;;;;;;;;;;4822670;29;20512;-82
2022/04/27 05:12:10;;;;;;;6.38;4.45;;;;;;;;;;4811704;29;20022;-83
2022/04/27 05:14:35;;;;;;;6.40;4.10;;;;;;;;;;4822992;29;20037;-82
2022/04/27 05:17:01;;;;;;;6.00;4.03;;;;;;;;;;4831239;29;20046;-82
2022/04/27 05:19:26;;;;;;;6.30;4.30;;;;;;;;;;4826496;29;20035;-84
2022/04/27 05:21:52;;;;;;;5.90;3.88;;;;;;;;;;4819403;29;20031;-84
2022/04/27 05:24:17;;;;;;;7.47;4.25;;;;;;;;;;4816722;29;20104;-83
2022/04/27 05:26:42;;;;;;;7.63;5.13;;;;;;;;;;4816484;29;20054;-87
2022/04/27 05:31:55;;;;;;;5.90;4.05;;;;;;;;;;4830424;29;20219;-82
2022/04/27 05:34:24;;;;;;;6.20;4.03;;;;;;;;;;4829164;29;20030;-83
2022/04/27 05:36:50;;;;;;;9.35;4.30;;;;;;;;;;4831880;29;20489;-82
2022/04/27 05:39:18;;;;;;;6.30;4.32;;;;;;;;;;4811509;29;20175;-83
2022/04/27 05:41:43;;;;;;;6.03;4.18;;;;;;;;;;4801357;29;20388;-84
2022/04/27 05:44:09;;;;;;;8.10;4.00;;;;;;;;;;4797921;29;20029;-84
2022/04/27 05:46:39;;;;;;;6.68;4.35;;;;;;;;;;4799855;29;20064;-83
2022/04/27 05:49:05;;;;;;;6.93;4.47;;;;;;;;;;4792570;29;20034;-84
2022/04/27 05:51:30;;;;;;;7.18;4.60;;;;;;;;;;4799596;29;20501;-85
2022/04/27 05:53:56;;;;;;;8.45;5.28;;;;;;;;;;4801361;29;20045;-84
2022/04/27 05:56:22;;;;;;;8.75;5.20;;;;;;;;;;4800052;29;20034;-89
2022/04/27 05:58:48;;;;;;;8.23;5.53;;;;;;;;;;4797897;29;20092;-85
2022/04/27 06:01:13;;;;;;;8.10;4.72;;;;;;;;;;4794062;29;20060;-85
2022/04/27 06:03:38;;;;;;;6.82;5.10;;;;;;;;;;4811546;29;20023;-84
2022/04/27 06:06:04;;;;;;;8.98;5.45;;;;;;;;;;4802383;29;20037;-82
2022/04/27 06:08:29;;;;;;;8.32;5.07;;;;;;;;;;4815401;29;20120;-82
2022/04/27 06:11:19;;;;;;;7.68;4.50;;;;;;;;;;4810476;29;20031;-85
2022/04/27 06:13:46;;;;;;;6.55;4.72;;;;;;;;;;4813198;29;20053;-83
2022/04/27 06:16:11;;;;;;;8.52;5.30;;;;;;;;;;4795018;29;20040;-84
2022/04/27 06:18:39;;;;;;;8.65;4.65;;;;;;;;;;4812166;29;20038;-84
2022/04/27 06:21:04;;;;;;;8.95;4.82;;;;;;;;;;4801594;29;20052;-85
2022/04/27 06:23:31;;;;;;;8.63;5.13;;;;;;;;;;4799512;29;20018;-84
2022/04/27 06:25:57;;;;;;;6.72;4.43;;;;;;;;;;4812900;29;20026;-85
2022/04/27 06:28:22;;;;;;;9.05;4.97;;;;;;;;;;4798138;29;20038;-89
2022/04/27 06:30:47;;;;;;;7.32;4.53;;;;;;;;;;4797880;29;20123;-82
2022/04/27 06:33:13;;;;;;;8.40;5.25;;;;;;;;;;4811340;29;20520;-89
2022/04/27 06:35:40;;;;;;;8.75;5.25;;;;;;;;;;4807077;29;20046;-85
2022/04/27 06:38:07;;;;;;;7.60;4.97;;;;;;;;;;4812183;29;20046;-84
2022/04/27 06:40:33;;;;;;;9.88;5.63;;;;;;;;;;4829008;29;20034;-85
2022/04/27 06:42:58;;;;;;;10.45;6.03;;;;;;;;;;4815011;29;20437;-85
2022/04/27 06:45:27;;;;;;;12.40;5.80;;;;;;;;;;4827163;29;20484;-82
2022/04/27 06:47:53;;;;;;;9.35;5.70;;;;;;;;;;4813036;29;21409;-84
2022/04/27 06:50:19;;;;;;;11.43;5.25;;;;;;;;;;4815762;29;20061;-82
2022/04/27 06:52:47;;;;;;;8.90;5.78;;;;;;;;;;4824833;29;20531;-83
2022/04/27 06:55:14;;;;;;;8.38;5.65;;;;;;;;;;4825541;29;20046;-82
2022/04/27 06:57:40;;;;;;;8.48;5.40;;;;;;;;;;4812344;29;20030;-84
2022/04/27 07:00:08;;;;;;;10.55;5.93;;;;;;;;;;4813517;29;20547;-84
2022/04/27 07:02:34;;;;;;;9.40;5.50;;;;;;;;;;4828813;29;20113;-90
2022/04/27 07:05:01;;;;;;;9.10;5.78;;;;;;;;;;4838637;29;20078;-82
2022/04/27 07:07:27;;;;;;;10.45;5.97;;;;;;;;;;4822206;29;20124;-81
2022/04/27 07:09:55;;;;;;;9.27;5.05;;;;;;;;;;4832338;29;20489;-84
2022/04/27 07:12:21;;;;;;;8.68;4.95;;;;;;;;;;4834764;29;20038;-84
2022/04/27 07:14:48;;;;;;;10.02;5.13;;;;;;;;;;4828497;29;20030;-82
2022/04/27 07:17:15;;;;;;;10.25;5.05;;;;;;;;;;4841612;29;20361;-89
2022/04/27 07:19:41;;;;;;;10.85;5.30;;;;;;;;;;4823873;29;20034;-82
2022/04/27 07:22:06;;;;;;;7.50;4.53;;;;;;;;;;4844499;29;20037;-83
2022/04/27 07:24:32;;;;;;;9.48;4.55;;;;;;;;;;4820065;29;20064;-90
2022/04/27 07:26:58;;;;;;;9.88;5.10;;;;;;;;;;4813460;29;20031;-88
2022/04/27 07:29:24;;;;;;;9.00;4.80;;;;;;;;;;4822899;29;20037;-85
2022/04/27 07:31:50;;;;;;;6.03;4.40;;;;;;;;;;4829904;29;20117;-86
2022/04/27 07:34:15;;;;;;;6.45;4.53;;;;;;;;;;4832172;29;20081;-87
2022/04/27 07:36:40;;;;;;;7.72;4.45;;;;;;;;;;4835268;29;20121;-84
2022/04/27 07:39:06;;;;;;;7.57;3.90;;;;;;;;;;4821905;29;20046;-85
2022/04/27 07:41:32;;;;;;;7.00;3.78;;;;;;;;;;4836153;29;20034;-84
2022/04/27 07:43:57;;;;;;;6.53;4.10;;;;;;;;;;4835195;29;20111;-86
2022/04/27 07:46:23;;;;;;;5.93;2.90;;;;;;;;;;4841099;29;20079;-92
2022/04/27 07:48:51;;;;;;;7.95;3.20;;;;;;;;;;4818058;29;20034;-85
2022/04/27 07:51:17;;;;;;;6.68;3.75;;;;;;;;;;4833596;29;20038;-84
2022/04/27 07:53:42;;;;;;;5.05;3.33;;;;;;;;;;4818024;29;20040;-83
2022/04/27 07:56:08;;;;;;;7.15;3.67;;;;;;;;;;4837489;29;20392;-84
2022/04/27 07:58:34;;;;;;;6.53;3.55;;;;;;;;;;4840301;29;20042;-85
2022/04/27 08:01:00;;;;;;;5.60;3.67;;;;;;;;;;4820041;29;20063;-81
2022/04/27 08:03:26;;;;;;;4.68;3.17;;;;;;;;;;4835738;29;20031;-81
2022/04/27 08:05:51;;;;;;;6.05;3.10;;;;;;;;;;4833360;29;20038;-83
2022/04/27 08:08:16;;;;;;;6.47;3.70;;;;;;;;;;4827292;29;20437;-84
2022/04/27 08:10:42;;;;;;;7.18;3.83;;;;;;;;;;4825746;29;20449;-82
2022/04/27 08:13:07;;;;;;;6.38;3.80;;;;;;;;;;4833575;29;20101;-84
2022/04/27 08:15:32;;;;;;;7.15;3.25;;;;;;;;;;4828768;29;20196;-82
2022/04/27 08:18:03;;;;;;;3.60;2.15;;;;;;;;;;4834193;29;20036;-91
2022/04/27 08:23:20;;;;;;;3.83;1.85;;;;;;;;;;4835236;29;21108;-82
2022/04/27 08:25:47;;;;;;;3.65;1.92;;;;;;;;;;4833033;29;20033;-84
2022/04/27 08:28:13;;;;;;;3.08;1.95;;;;;;;;;;4822619;29;20032;-88
2022/04/27 08:30:40;;;;;;;6.35;2.47;;;;;;;;;;4832702;29;20026;-84
2022/04/27 08:33:07;;;;;;;4.10;2.00;;;;;;;;;;4824466;29;20033;-82
2022/04/27 08:35:33;;;;;;;4.68;2.03;;;;;;;;;;4830541;29;20446;-89
2022/04/27 08:37:59;;;;;;;6.60;2.30;;;;;;;;;;4843138;29;20058;-89
2022/04/27 08:40:24;;;;;;;5.40;2.25;;;;;;;;;;4827007;29;20053;-83
2022/04/27 08:42:53;;;;;;;3.78;1.85;;;;;;;;;;4824869;29;20034;-84
2022/04/27 08:45:19;;;;;;;4.53;1.73;;;;;;;;;;4826536;29;20093;-81
2022/04/27 08:47:46;;;;;;;4.00;1.73;;;;;;;;;;4823773;29;20026;-84
2022/04/27 08:50:16;;;;;;;3.75;2.17;;;;;;;;;;4824076;29;20046;-87
2022/04/27 08:52:43;;;;;;;5.78;2.70;;;;;;;;;;4828177;29;20522;-82
2022/04/27 08:55:09;;;;;;;4.95;2.47;;;;;;;;;;4842619;29;20476;-81
2022/04/27 08:57:35;;;;;;;4.40;2.22;;;;;;;;;;4817046;29;20029;-84
2022/04/27 09:00:03;;;;;;;3.60;2.53;;;;;;;;;;4828320;29;20090;-81
2022/04/27 09:02:30;;;;;;;4.95;2.85;;;;;;;;;;4835885;29;20152;-84
2022/04/27 09:05:15;;;;;;;6.22;2.88;;;;;;;;;;4838935;29;20408;-83
2022/04/27 09:07:43;;;;;;;4.93;2.90;;;;;;;;;;4837075;29;20409;-85
2022/04/27 09:10:14;;;;;;;5.32;2.70;;;;;;;;;;4821744;29;20067;-87
2022/04/27 09:12:54;;;;;;;5.72;2.80;;;;;;;;;;4828786;29;20038;-80
2022/04/27 09:15:24;;;;;;;7.20;3.00;;;;;;;;;;4818901;29;20389;-91
2022/04/27 09:20:55;;;;;;;4.40;2.80;;;;;;;;;;4834409;29;20093;-83
2022/04/27 09:23:37;;;;;;;5.03;3.20;;;;;;;;;;4836362;29;20066;-82
2022/04/27 09:26:15;;;;;;;4.93;3.33;;;;;;;;;;4834567;29;20108;-82
2022/04/27 09:28:40;;;;;;;5.60;3.30;;;;;;;;;;4821782;29;20126;-83
2022/04/27 09:31:05;;;;;;;6.72;3.75;;;;;;;;;;4840844;29;20053;-85
2022/04/27 09:33:35;;;;;;;5.93;3.10;;;;;;;;;;4837624;29;20168;-81
2022/04/27 09:36:17;;;;;;;5.97;3.15;;;;;;;;;;4838436;29;20036;-83
2022/04/27 09:38:43;;;;;;;5.97;3.47;;;;;;;;;;4822753;29;20150;-84
2022/04/27 09:41:09;;;;;;;7.20;3.10;;;;;;;;;;4831283;29;20030;-82
2022/04/27 09:43:45;;;;;;;7.03;3.38;;;;;;;;;;4838249;29;20038;-87
2022/04/27 09:46:25;;;;;;;4.57;2.92;;;;;;;;;;4840079;29;20065;-83
2022/04/27 09:49:08;;;;;;;6.50;3.65;;;;;;;;;;4841075;29;20051;-84
2022/04/27 09:51:35;;;;;;;5.90;3.10;;;;;;;;;;4834802;29;20026;-88
2022/04/27 09:54:02;;;;;;;5.45;3.10;;;;;;;;;;4836950;29;20026;-85
2022/04/27 09:56:39;;;;;;;4.88;2.92;;;;;;;;;;4831678;29;20034;-83
2022/04/27 09:59:09;;;;;;;5.88;2.88;;;;;;;;;;4828712;29;20040;-85
2022/04/27 10:01:36;;;;;;;6.28;3.30;;;;;;;;;;4831509;29;21447;-83
2022/04/27 10:04:06;;;;;;;4.70;3.00;;;;;;;;;;4816817;29;20033;-84
2022/04/27 10:06:32;;;;;;;5.88;2.85;;;;;;;;;;4818354;29;20046;-82
2022/04/27 10:09:03;;;;;;;4.75;3.15;;;;;;;;;;4818065;29;20122;-83
2022/04/27 10:11:31;;;;;;;4.78;3.03;;;;;;;;;;4828671;29;20038;-84
2022/04/27 10:13:56;;;;;;;6.20;3.38;;;;;;;;;;4815964;29;20305;-84
2022/04/27 10:16:24;;;;;;;5.35;3.15;;;;;;;;;;4811797;29;20080;-85
2022/04/27 10:18:50;;;;;;;5.32;3.17;;;;;;;;;;4821794;29;20030;-84
2022/04/27 10:22:01;;;;;;;5.47;3.33;;;;;;;;;;4807477;29;20739;-83
2022/04/27 10:24:33;;;;;;;6.30;3.20;;;;;;;;;;4828003;29;20821;-84
2022/04/27 10:27:20;;;;;;;7.45;3.83;;;;;;;;;;4805724;29;20125;-86
2022/04/27 10:30:06;;;;;;;6.57;4.13;;;;;;;;;;4822873;29;20030;-83
2022/04/27 10:32:38;;;;;;;10.02;4.03;;;;;;;;;;4824208;29;20725;-82
2022/04/27 10:35:13;;;;;;;6.20;4.13;;;;;;;;;;4824808;29;20033;-82
2022/04/27 10:37:57;;;;;;;6.80;4.03;;;;;;;;;;4813714;29;20118;-84
2022/04/27 10:40:30;;;;;;;5.55;4.00;;;;;;;;;;4811276;29;20381;-85
2022/04/27 10:43:27;;;;;;;5.40;4.10;;;;;;;;;;4816703;29;20033;-85
2022/04/27 10:45:53;;;;;;;6.28;3.92;;;;;;;;;;4813245;29;20049;-84
2022/04/27 10:48:24;;;;;;;8.43;4.32;;;;;;;;;;4820695;29;20036;-83
2022/04/27 10:51:02;;;;;;;8.95;4.47;;;;;;;;;;4810055;29;20072;-83
2022/04/27 10:53:49;;;;;;;6.28;4.25;;;;;;;;;;4818438;29;20030;-85
2022/04/27 10:56:22;;;;;;;6.03;4.35;;;;;;;;;;4811885;29;20045;-83
2022/04/27 10:58:48;;;;;;;7.30;4.53;;;;;;;;;;4821088;29;20412;-84
2022/04/27 11:01:21;;;;;;;6.43;4.45;;;;;;;;;;4823315;29;20029;-83
2022/04/27 11:04:06;;;;;;;6.75;4.50;;;;;;;;;;4805933;29;20026;-84
2022/04/27 11:06:56;;;;;;;7.15;4.47;;;;;;;;;;4811299;29;20044;-85
2022/04/27 11:09:32;;;;;;;5.45;3.65;;;;;;;;;;4828897;29;20036;-84
2022/04/27 11:11:58;;;;;;;6.72;4.25;;;;;;;;;;4813305;29;20033;-83
2022/04/27 11:14:34;;;;;;;8.13;4.10;;;;;;;;;;4823754;29;20034;-85
2022/04/27 11:17:04;;;;;;;7.40;4.15;;;;;;;;;;4815493;29;20134;-84
2022/04/27 11:19:37;;;;;;;6.18;4.22;;;;;;;;;;4827028;29;20040;-84
2022/04/27 11:22:15;;;;;;;6.47;4.00;;;;;;;;;;4814665;29;20046;-88
2022/04/27 11:24:42;;;;;;;5.80;3.92;;;;;;;;;;4807383;29;20489;-83
2022/04/27 11:27:08;;;;;;;7.80;4.25;;;;;;;;;;4810986;29;20662;-84
2022/04/27 11:29:35;;;;;;;6.25;4.07;;;;;;;;;;4820190;29;20065;-84
2022/04/27 11:32:05;;;;;;;6.10;4.32;;;;;;;;;;4815854;29;20090;-86
2022/04/27 11:34:32;;;;;;;6.50;4.20;;;;;;;;;;4813056;29;20034;-85
2022/04/27 11:36:57;;;;;;;5.68;4.18;;;;;;;;;;4821595;29;20038;-84
2022/04/27 11:39:24;;;;;;;7.15;4.07;;;;;;;;;;4814093;29;20046;-84
2022/04/27 11:42:02;;;;;;;5.57;4.40;;;;;;;;;;4803808;29;20038;-85
2022/04/27 11:44:29;;;;;;;5.60;3.53;;;;;;;;;;4812913;29;20514;-83
2022/04/27 11:46:56;;;;;;;6.28;3.90;;;;;;;;;;4831231;29;20488;-84
2022/04/27 11:49:23;;;;;;;5.60;3.88;;;;;;;;;;4824062;29;20041;-86
2022/04/27 11:51:49;;;;;;;7.80;4.40;;;;;;;;;;4813488;29;20085;-84
2022/04/27 11:54:28;;;;;;;7.32;4.38;;;;;;;;;;4814939;29;20038;-84
2022/04/27 11:57:00;;;;;;;6.63;4.10;;;;;;;;;;4809327;29;20034;-83
2022/04/27 11:59:40;;;;;;;7.25;4.28;;;;;;;;;;4830873;29;20032;-84
2022/04/27 12:02:05;;;;;;;6.82;4.40;;;;;;;;;;4808555;29;20091;-84
2022/04/27 12:04:31;;;;;;;7.03;4.38;;;;;;;;;;4814340;29;20034;-84
2022/04/27 12:06:56;;;;;;;7.72;4.15;;;;;;;;;;4828319;29;20038;-84
2022/04/27 12:09:21;;;;;;;6.57;4.15;;;;;;;;;;4811736;29;20790;-84
2022/04/27 12:11:47;;;;;;;6.95;4.03;;;;;;;;;;4823984;29;20378;-84
2022/04/27 12:14:16;;;;;;;5.97;4.10;;;;;;;;;;4811609;29;20059;-81
2022/04/27 12:16:42;;;;;;;7.10;4.82;;;;;;;;;;4812512;29;20041;-81
2022/04/27 12:19:08;;;;;;;7.32;4.50;;;;;;;;;;4811642;29;20030;-84
2022/04/27 12:21:33;;;;;;;7.25;4.60;;;;;;;;;;4812406;29;20042;-82
2022/04/27 12:24:00;;;;;;;7.63;4.47;;;;;;;;;;4830808;29;20490;-82
2022/04/27 12:26:39;;;;;;;6.13;4.18;;;;;;;;;;4834294;29;20034;-81
2022/04/27 12:29:07;;;;;;;6.90;4.80;;;;;;;;;;4816026;29;20092;-84
2022/04/27 12:31:34;;;;;;;6.88;4.45;;;;;;;;;;4830639;29;20132;-82
2022/04/27 12:34:03;;;;;;;7.00;4.30;;;;;;;;;;4830475;29;20489;-81
2022/04/27 12:39:23;;;;;;;8.32;5.30;;;;;;;;;;4831708;29;20184;-82
2022/04/27 12:41:52;;;;;;;5.88;4.13;;;;;;;;;;4818866;29;20078;-81
2022/04/27 12:44:19;;;;;;;7.80;4.00;;;;;;;;;;4821017;29;20051;-82
2022/04/27 12:46:58;;;;;;;5.18;3.28;;;;;;;;;;4830544;29;20691;-82
2022/04/27 12:49:28;;;;;;;5.60;3.72;;;;;;;;;;4819613;29;20583;-83
2022/04/27 12:51:55;;;;;;;5.65;4.18;;;;;;;;;;4814741;29;20068;-81
2022/04/27 12:54:32;;;;;;;7.60;4.40;;;;;;;;;;4820324;29;20049;-82
2022/04/27 12:57:01;;;;;;;6.22;4.47;;;;;;;;;;4831900;29;20036;-81
2022/04/27 12:59:26;;;;;;;7.13;4.40;;;;;;;;;;4835294;29;20030;-84
2022/04/27 13:02:04;;;;;;;5.75;3.90;;;;;;;;;;4816970;29;20030;-83
2022/04/27 13:04:31;;;;;;;8.05;4.68;;;;;;;;;;4828915;29;20030;-85
2022/04/27 13:06:57;;;;;;;7.20;4.20;;;;;;;;;;4810885;29;20042;-84
2022/04/27 13:12:07;;;;;;;6.32;3.83;;;;;;;;;;4833914;29;20205;-84
2022/04/27 13:14:33;;;;;;;6.53;3.95;;;;;;;;;;4818779;29;20086;-82
2022/04/27 13:16:58;;;;;;;7.57;3.95;;;;;;;;;;4820150;29;20067;-84
2022/04/27 13:19:24;;;;;;;7.35;3.92;;;;;;;;;;4818518;29;20030;-82
2022/04/27 13:21:50;;;;;;;5.93;3.95;;;;;;;;;;4831429;29;20492;-82
2022/04/27 13:24:16;;;;;;;5.90;4.00;;;;;;;;;;4814050;29;20082;-82
2022/04/27 13:26:42;;;;;;;5.18;3.88;;;;;;;;;;4822626;29;20124;-82
2022/04/27 13:29:07;;;;;;;6.38;3.88;;;;;;;;;;4817007;29;20121;-81
2022/04/27 13:31:33;;;;;;;5.13;3.83;;;;;;;;;;4815373;29;20034;-82
2022/04/27 13:33:58;;;;;;;7.93;4.40;;;;;;;;;;4812300;29;20033;-81
2022/04/27 13:36:24;;;;;;;6.72;3.78;;;;;;;;;;4814767;29;20090;-82
2022/04/27 13:38:50;;;;;;;8.82;3.95;;;;;;;;;;4818618;29;20141;-84
2022/04/27 13:41:15;;;;;;;4.85;3.40;;;;;;;;;;4830208;29;20492;-82
2022/04/27 13:43:41;;;;;;;6.38;3.55;;;;;;;;;;4827765;29;20033;-82
2022/04/27 13:46:08;;;;;;;5.15;3.47;;;;;;;;;;4810260;29;20038;-84
2022/04/27 13:48:34;;;;;;;6.38;3.75;;;;;;;;;;4809650;29;20416;-84
2022/04/27 13:51:00;;;;;;;7.68;4.22;;;;;;;;;;4803120;29;20038;-81
2022/04/27 13:53:28;;;;;;;6.43;4.13;;;;;;;;;;4794671;29;20153;-80
2022/04/27 13:55:53;;;;;;;6.20;3.97;;;;;;;;;;4809958;29;20045;-81
2022/04/27 13:58:19;;;;;;;6.10;3.95;;;;;;;;;;4821481;29;20038;-81
2022/04/27 14:00:44;;;;;;;7.18;3.40;;;;;;;;;;4825313;29;20041;-85
2022/04/27 14:03:09;;;;;;;6.25;3.72;;;;;;;;;;4820692;29;20485;-81
2022/04/27 14:05:35;;;;;;;8.05;4.10;;;;;;;;;;4821626;29;20041;-81
2022/04/27 14:08:01;;;;;;;7.22;4.15;;;;;;;;;;4818319;29;20045;-80
2022/04/27 14:10:27;;;;;;;5.57;3.78;;;;;;;;;;4813423;29;20566;-81
2022/04/27 14:18:32;;;;;;;5.30;3.38;;;;;;;;;;4826133;29;20552;-81
2022/04/27 14:20:59;;;;;;;5.20;3.20;;;;;;;;;;4809226;29;20050;-82
2022/04/27 14:23:25;;;;;;;4.50;3.38;;;;;;;;;;4824083;29;20097;-81
2022/04/27 14:25:51;;;;;;;5.63;3.30;;;;;;;;;;4819321;29;20056;-81
2022/04/27 14:28:17;;;;;;;5.97;3.47;;;;;;;;;;4807109;29;20048;-81
2022/04/27 14:30:43;;;;;;;5.63;3.30;;;;;;;;;;4814381;29;20042;-81
2022/04/27 14:33:09;;;;;;;5.22;3.30;;;;;;;;;;4815208;29;20034;-82
2022/04/27 14:35:36;;;;;;;6.25;3.40;;;;;;;;;;4808148;29;20069;-82
2022/04/27 14:38:04;;;;;;;6.05;3.30;;;;;;;;;;4812383;29;20069;-81
2022/04/27 14:40:29;;;;;;;4.70;3.33;;;;;;;;;;4831889;29;20037;-81
2022/04/27 14:42:55;;;;;;;5.43;3.42;;;;;;;;;;4811340;29;20034;-81
2022/04/27 14:45:20;;;;;;;5.00;3.85;;;;;;;;;;4820445;29;20038;-81
2022/04/27 14:47:49;;;;;;;6.07;3.50;;;;;;;;;;4823296;29;20435;-78
2022/04/27 14:50:15;;;;;;;5.28;3.15;;;;;;;;;;4827100;29;20048;-78
2022/04/27 14:52:40;;;;;;;5.63;3.85;;;;;;;;;;4812585;29;20643;-81
2022/04/27 14:55:07;;;;;;;5.70;4.15;;;;;;;;;;4822053;29;20771;-81
2022/04/27 14:57:33;;;;;;;6.40;3.78;;;;;;;;;;4827063;29;20117;-85
2022/04/27 14:59:59;;;;;;;5.13;3.67;;;;;;;;;;4812821;29;20073;-81
2022/04/27 15:02:27;;;;;;;4.88;3.63;;;;;;;;;;4827289;29;20549;-82
2022/04/27 15:04:56;;;;;;;5.53;3.45;;;;;;;;;;4814149;29;20037;-78
2022/04/27 15:07:21;;;;;;;6.65;3.60;;;;;;;;;;4807271;29;20662;-82
2022/04/27 15:09:47;;;;;;;5.35;3.05;;;;;;;;;;4822275;29;20038;-78
2022/04/27 15:12:12;;;;;;;5.40;3.20;;;;;;;;;;4816656;29;20443;-83
2022/04/27 15:14:38;;;;;;;4.53;2.97;;;;;;;;;;4817865;29;20038;-88
2022/04/27 15:17:03;;;;;;;6.07;3.05;;;;;;;;;;4832150;29;20041;-82